Time;durP1;ratioP1;P1;durP2;ratioP2;P2;SDS_P1;SDS_P2;PMS_P1;PMS_P2;Temp;Humidity;BMP_temperature;BMP_pressure;BME280_temperature;BME280_humidity;BME280_pressure;Samples;Min_cycle;Max_cycle;Signal;HPM_P1;HPM_P2
2023/10/05 00:03:25;;;;;;;;;;;;;;;10.21;89.35;101099.51;107976;275;96690;-59
2023/10/05 00:06:13;;;;;;;;;;;;;;;10.23;89.53;101098.09;107981;275;96516;-56
2023/10/05 00:08:52;;;;;;;;;;;;;;;10.26;89.67;101093.60;107683;275;120374;-55
2023/10/05 00:11:29;;;;;;;;;;;;;;;10.27;89.50;101097.77;107774;275;106863;-59
2023/10/05 00:14:04;;;;;;;;;;;;;;;10.27;89.66;101088.63;107840;275;112823;-59
2023/10/05 00:16:36;;;;;;;;;;;;;;;10.32;89.57;101086.04;107738;275;95740;-59
2023/10/05 00:19:10;;;;;;;;;;;;;;;10.33;89.77;101085.25;107575;275;99372;-59
2023/10/05 00:21:48;;;;;;;;;;;;;;;10.34;89.70;101084.38;107706;275;121100;-54
2023/10/05 00:24:27;;;;;;;;;;;;;;;10.35;89.61;101084.35;107703;275;105306;-54
2023/10/05 00:26:59;;;;;;;;;;;;;;;10.32;89.78;101073.30;107658;275;114286;-54
2023/10/05 00:29:39;;;;;;;;;;;;;;;10.28;89.82;101068.92;107671;275;97787;-54
2023/10/05 00:32:20;;;;;;;;;;;;;;;10.28;89.63;101067.04;107640;275;97362;-58
2023/10/05 00:35:08;;;;;;;;;;;;;;;10.24;89.75;101062.31;107514;275;122121;-58
2023/10/05 00:37:42;;;;;;;;;;;;;;;10.25;89.59;101062.54;107670;275;104734;-58
2023/10/05 00:40:32;;;;;;;;;;;;;;;10.22;89.69;101059.11;107615;275;114666;-57
2023/10/05 00:43:12;;;;;;;;;;;;;;;10.23;89.73;101064.00;107471;275;95875;-58
2023/10/05 00:45:47;;;;;;;;;;;;;;;10.23;89.67;101065.15;107648;275;95436;-58
2023/10/05 00:48:28;;;;;;;;;;;;;;;10.20;89.64;101064.16;107682;275;121679;-58
2023/10/05 00:51:06;;;;;;;;;;;;;;;10.18;89.68;101058.65;107683;275;105254;-58
2023/10/05 00:53:42;;;;;;;;;;;;;;;10.17;89.68;101060.26;107654;275;114739;-56
2023/10/05 00:56:16;;;;;;;;;;;;;;;10.18;89.80;101057.84;107653;275;97705;-53
2023/10/05 00:58:48;;;;;;;;;;;;;;;10.18;89.94;101059.25;107676;275;97852;-54
2023/10/05 01:01:33;;;;;;;;;;;;;;;10.21;89.75;101057.29;107680;275;122363;-54
2023/10/05 01:04:18;;;;;;;;;;;;;;;10.22;89.87;101054.96;107687;275;106104;-53
2023/10/05 01:06:56;;;;;;;;;;;;;;;10.21;89.81;101049.73;107488;275;114641;-55
2023/10/05 01:09:56;;;;;;;;;;;;;;;10.23;89.80;101049.09;107635;275;96227;-55
2023/10/05 01:12:37;;;;;;;;;;;;;;;10.26;89.79;101045.54;107926;275;96496;-59
2023/10/05 01:15:09;;;;;;;;;;;;;;;10.31;90.08;101043.20;107831;275;121269;-59
2023/10/05 01:17:47;;;;;;;;;;;;;;;10.29;90.12;101042.46;107951;275;105609;-59
2023/10/05 01:20:23;;;;;;;;;;;;;;;10.32;90.05;101042.70;107919;275;114266;-59
2023/10/05 01:23:04;;;;;;;;;;;;;;;10.31;90.19;101044.38;107640;275;96153;-58
2023/10/05 01:25:41;;;;;;;;;;;;;;;10.31;90.05;101040.77;107738;275;97489;-60
2023/10/05 01:28:17;;;;;;;;;;;;;;;10.38;90.13;101040.78;107913;275;121951;-59
2023/10/05 01:30:52;;;;;;;;;;;;;;;10.40;90.08;101037.30;107828;273;105964;-58
2023/10/05 01:33:29;;;;;;;;;;;;;;;10.39;90.03;101038.41;107636;275;114956;-58
2023/10/05 01:36:06;;;;;;;;;;;;;;;10.42;90.13;101037.18;107680;275;96630;-56
2023/10/05 01:38:41;;;;;;;;;;;;;;;10.44;89.98;101031.04;107695;275;98195;-56
2023/10/05 01:41:20;;;;;;;;;;;;;;;10.42;89.93;101028.08;107658;275;120432;-58
2023/10/05 01:44:00;;;;;;;;;;;;;;;10.41;90.00;101023.79;107627;275;105769;-58
2023/10/05 01:46:33;;;;;;;;;;;;;;;10.42;89.99;101024.02;107777;275;113614;-59
2023/10/05 01:49:08;;;;;;;;;;;;;;;10.42;90.02;101026.41;107911;275;97428;-60
2023/10/05 01:51:41;;;;;;;;;;;;;;;10.40;90.00;101024.46;107766;268;95402;-58
2023/10/05 01:54:18;;;;;;;;;;;;;;;10.35;89.90;101017.42;107619;275;120295;-57
2023/10/05 01:57:01;;;;;;;;;;;;;;;10.32;89.82;101017.14;107840;275;106326;-59
2023/10/05 01:59:35;;;;;;;;;;;;;;;10.26;89.84;101015.98;108114;275;113559;-60
2023/10/05 02:02:16;;;;;;;;;;;;;;;10.23;89.92;101014.52;107759;275;95417;-55
2023/10/05 02:04:50;;;;;;;;;;;;;;;10.20;89.82;101013.81;107718;275;97687;-55
2023/10/05 02:07:25;;;;;;;;;;;;;;;10.22;89.89;101017.02;107696;275;120965;-56
2023/10/05 02:10:09;;;;;;;;;;;;;;;10.23;89.86;101015.80;107673;275;103910;-57
2023/10/05 02:12:46;;;;;;;;;;;;;;;10.22;89.83;101009.13;107646;275;114307;-53
2023/10/05 02:15:20;;;;;;;;;;;;;;;10.15;89.90;101005.09;107685;275;96468;-55
2023/10/05 02:17:51;;;;;;;;;;;;;;;10.09;89.90;101002.53;107786;275;97643;-59
2023/10/05 02:20:38;;;;;;;;;;;;;;;10.09;90.10;101005.09;107625;275;121558;-56
2023/10/05 02:23:25;;;;;;;;;;;;;;;10.07;90.01;101004.69;107639;275;104612;-57
2023/10/05 02:26:04;;;;;;;;;;;;;;;10.04;90.12;101005.77;107687;275;114927;-57
2023/10/05 02:28:39;;;;;;;;;;;;;;;10.04;90.06;101002.54;107651;275;96121;-57
2023/10/05 02:31:15;;;;;;;;;;;;;;;10.02;90.16;101004.91;107701;275;97981;-57
2023/10/05 02:33:48;;;;;;;;;;;;;;;10.01;90.18;100999.28;107725;275;122363;-57
2023/10/05 02:36:28;;;;;;;;;;;;;;;10.01;90.13;101000.52;107667;275;105202;-53
2023/10/05 02:39:00;;;;;;;;;;;;;;;10.01;90.31;100998.63;107696;275;114951;-53
2023/10/05 02:41:37;;;;;;;;;;;;;;;10.02;90.26;101002.81;107723;275;96308;-55
2023/10/05 02:44:19;;;;;;;;;;;;;;;10.02;90.28;100998.33;107708;275;96964;-56
2023/10/05 02:46:56;;;;;;;;;;;;;;;10.03;90.24;101000.22;107677;275;121987;-53
2023/10/05 02:49:30;;;;;;;;;;;;;;;10.04;90.35;100999.71;107711;275;106165;-54
2023/10/05 02:52:04;;;;;;;;;;;;;;;10.05;90.20;100995.82;107694;275;114468;-55
2023/10/05 02:54:43;;;;;;;;;;;;;;;10.02;90.39;100998.63;107661;275;96506;-55
2023/10/05 02:57:16;;;;;;;;;;;;;;;10.02;90.46;101002.65;107482;275;99722;-55
2023/10/05 02:59:53;;;;;;;;;;;;;;;10.01;90.44;101004.50;107664;275;120575;-54
2023/10/05 03:02:28;;;;;;;;;;;;;;;10.03;90.50;100997.68;107594;275;105369;-53
2023/10/05 03:05:05;;;;;;;;;;;;;;;10.03;90.36;100996.36;107628;275;113712;-54
2023/10/05 03:07:40;;;;;;;;;;;;;;;10.05;90.40;100998.30;107620;275;95726;-57
2023/10/05 03:10:16;;;;;;;;;;;;;;;10.08;90.45;100999.46;107666;275;97712;-57
2023/10/05 03:12:51;;;;;;;;;;;;;;;10.09;90.49;100994.98;107627;275;120902;-55
2023/10/05 03:15:27;;;;;;;;;;;;;;;10.13;90.41;100988.14;107652;275;103939;-54
2023/10/05 03:18:04;;;;;;;;;;;;;;;10.13;90.45;100983.09;107646;275;114444;-53
2023/10/05 03:20:34;;;;;;;;;;;;;;;10.15;90.47;100981.39;107654;275;95954;-55
2023/10/05 03:23:14;;;;;;;;;;;;;;;10.19;90.55;100978.48;107683;275;98089;-55
2023/10/05 03:25:55;;;;;;;;;;;;;;;10.19;90.59;100974.33;107557;275;121985;-54
2023/10/05 03:28:33;;;;;;;;;;;;;;;10.18;90.52;100972.83;107696;275;104857;-54
2023/10/05 03:31:14;;;;;;;;;;;;;;;10.19;90.54;100971.68;107691;275;113484;-54
2023/10/05 03:33:51;;;;;;;;;;;;;;;10.17;90.46;100966.27;107692;275;96357;-54
2023/10/05 03:36:23;;;;;;;;;;;;;;;10.21;90.44;100960.93;107686;275;97432;-54
2023/10/05 03:38:56;;;;;;;;;;;;;;;10.21;90.47;100956.05;107700;275;121904;-54
2023/10/05 03:41:26;;;;;;;;;;;;;;;10.21;90.43;100955.32;107735;275;105465;-52
2023/10/05 03:44:07;;;;;;;;;;;;;;;10.18;90.47;100955.90;107723;275;115559;-53
2023/10/05 03:46:46;;;;;;;;;;;;;;;10.20;90.43;100956.61;107674;275;95994;-57
2023/10/05 03:49:26;;;;;;;;;;;;;;;10.18;90.47;100955.41;107509;275;98058;-56
2023/10/05 03:52:06;;;;;;;;;;;;;;;10.15;90.40;100957.87;107683;275;121395;-57
2023/10/05 03:54:44;;;;;;;;;;;;;;;10.15;90.39;100956.63;107672;275;104024;-57
2023/10/05 03:57:16;;;;;;;;;;;;;;;10.14;90.38;100961.52;107618;275;113700;-57
2023/10/05 03:59:58;;;;;;;;;;;;;;;10.10;90.31;100958.56;107165;275;96869;-53
2023/10/05 04:02:31;;;;;;;;;;;;;;;10.06;90.36;100959.65;107708;275;96410;-54
2023/10/05 04:05:23;;;;;;;;;;;;;;;10.07;90.45;100961.20;107522;275;121902;-53
2023/10/05 04:08:16;;;;;;;;;;;;;;;10.02;90.32;100964.12;107659;275;105440;-53
2023/10/05 04:10:55;;;;;;;;;;;;;;;10.00;90.33;100962.88;107687;275;113614;-57
2023/10/05 04:13:35;;;;;;;;;;;;;;;9.98;90.20;100964.52;107592;275;95745;-57
2023/10/05 04:16:17;;;;;;;;;;;;;;;9.95;90.37;100964.32;107713;275;97003;-56
2023/10/05 04:18:50;;;;;;;;;;;;;;;9.94;90.36;100962.52;107693;275;122538;-54
2023/10/05 04:21:22;;;;;;;;;;;;;;;9.93;90.22;100961.50;107751;275;104053;-54
2023/10/05 04:24:02;;;;;;;;;;;;;;;9.90;90.37;100951.89;107652;275;113572;-54
2023/10/05 04:26:37;;;;;;;;;;;;;;;9.88;90.29;100951.73;107742;275;96155;-58
2023/10/05 04:29:14;;;;;;;;;;;;;;;9.90;90.32;100949.80;107701;275;96152;-59
2023/10/05 04:31:50;;;;;;;;;;;;;;;9.91;90.34;100951.73;107533;275;120191;-57
2023/10/05 04:34:30;;;;;;;;;;;;;;;9.92;90.39;100949.25;107654;275;104931;-57
2023/10/05 04:37:06;;;;;;;;;;;;;;;9.91;90.32;100941.96;107652;275;113279;-52
2023/10/05 04:39:37;;;;;;;;;;;;;;;9.88;90.40;100942.85;107654;275;96325;-52
2023/10/05 04:42:15;;;;;;;;;;;;;;;9.85;90.44;100938.21;107695;275;95742;-58
2023/10/05 04:44:52;;;;;;;;;;;;;;;9.82;90.49;100934.49;107629;275;122256;-59
2023/10/05 04:47:27;;;;;;;;;;;;;;;9.82;90.51;100933.08;107687;275;104001;-56
2023/10/05 04:50:05;;;;;;;;;;;;;;;9.85;90.52;100926.86;107671;275;113941;-56
2023/10/05 04:52:39;;;;;;;;;;;;;;;9.86;90.51;100925.62;107659;275;96796;-59
2023/10/05 04:55:18;;;;;;;;;;;;;;;9.88;90.67;100923.02;107703;275;97803;-59
2023/10/05 04:58:05;;;;;;;;;;;;;;;9.90;90.56;100919.30;107643;275;122150;-54
2023/10/05 05:00:54;;;;;;;;;;;;;;;9.94;90.59;100911.81;107696;275;105495;-59
2023/10/05 05:03:55;;;;;;;;;;;;;;;9.95;90.73;100906.58;107756;275;113623;-58
2023/10/05 05:06:33;;;;;;;;;;;;;;;9.96;90.74;100903.05;107518;275;96827;-58
2023/10/05 05:09:11;;;;;;;;;;;;;;;10.00;90.70;100896.84;107728;275;97610;-59
2023/10/05 05:11:49;;;;;;;;;;;;;;;10.08;90.78;100895.09;107703;275;121568;-55
2023/10/05 05:14:27;;;;;;;;;;;;;;;10.13;90.87;100881.05;107708;275;105084;-55
2023/10/05 05:17:04;;;;;;;;;;;;;;;10.19;90.97;100880.52;107468;275;114281;-54
2023/10/05 05:19:41;;;;;;;;;;;;;;;10.30;90.96;100882.73;107645;275;95997;-56
2023/10/05 05:22:19;;;;;;;;;;;;;;;10.35;90.87;100879.80;107680;275;97315;-54
2023/10/05 05:25:03;;;;;;;;;;;;;;;10.39;90.81;100879.47;107623;275;121428;-53
2023/10/05 05:27:45;;;;;;;;;;;;;;;10.46;90.88;100876.50;107653;275;103182;-55
2023/10/05 05:30:24;;;;;;;;;;;;;;;10.57;90.73;100872.28;107495;275;114522;-56
2023/10/05 05:32:54;;;;;;;;;;;;;;;10.69;90.68;100868.27;107644;275;96419;-59
2023/10/05 05:35:24;;;;;;;;;;;;;;;10.80;90.66;100870.66;107722;275;96099;-59
2023/10/05 05:38:03;;;;;;;;;;;;;;;10.91;90.41;100867.54;107645;275;120560;-59
2023/10/05 05:40:36;;;;;;;;;;;;;;;11.00;90.38;100864.50;107684;275;104592;-58
2023/10/05 05:43:12;;;;;;;;;;;;;;;11.11;90.14;100863.06;107737;275;114874;-59
2023/10/05 05:45:43;;;;;;;;;;;;;;;11.16;89.96;100863.11;107699;275;94619;-57
2023/10/05 05:48:15;;;;;;;;;;;;;;;11.29;89.87;100866.11;107725;275;97329;-57
2023/10/05 05:50:54;;;;;;;;;;;;;;;11.47;89.61;100869.63;107690;275;120912;-56
2023/10/05 05:53:33;;;;;;;;;;;;;;;11.56;89.60;100869.55;107634;275;103950;-55
2023/10/05 05:56:08;;;;;;;;;;;;;;;11.68;89.39;100875.94;107643;275;113247;-54
2023/10/05 05:58:44;;;;;;;;;;;;;;;11.84;89.24;100875.27;107679;275;95875;-58
2023/10/05 06:01:19;;;;;;;;;;;;;;;12.02;89.08;100878.25;107691;275;97906;-58
2023/10/05 06:03:55;;;;;;;;;;;;;;;12.20;88.76;100864.28;107701;275;122659;-60
2023/10/05 06:06:27;;;;;;;;;;;;;;;12.35;88.36;100863.35;107723;275;105103;-53
2023/10/05 06:09:07;;;;;;;;;;;;;;;12.54;88.23;100856.70;107752;275;114480;-52
2023/10/05 06:11:41;;;;;;;;;;;;;;;12.70;87.52;100852.26;107758;275;96391;-53
2023/10/05 06:14:19;;;;;;;;;;;;;;;12.79;87.19;100852.22;107679;275;97476;-54
2023/10/05 06:16:52;;;;;;;;;;;;;;;12.87;86.75;100854.77;107885;268;121693;-60
2023/10/05 06:19:26;;;;;;;;;;;;;;;12.95;86.48;100849.49;107805;275;104940;-55
2023/10/05 06:22:09;;;;;;;;;;;;;;;12.94;86.13;100849.00;107697;275;115039;-56
2023/10/05 06:24:44;;;;;;;;;;;;;;;12.96;85.79;100848.98;107764;275;93726;-55
2023/10/05 06:27:22;;;;;;;;;;;;;;;12.96;85.42;100849.89;107745;275;98505;-55
2023/10/05 06:30:01;;;;;;;;;;;;;;;12.96;85.27;100847.19;107726;275;120896;-54
2023/10/05 06:32:31;;;;;;;;;;;;;;;12.97;85.16;100845.19;107739;275;105992;-55
2023/10/05 06:35:08;;;;;;;;;;;;;;;12.97;84.93;100844.89;107480;275;115211;-55
2023/10/05 06:37:41;;;;;;;;;;;;;;;12.95;84.77;100844.00;107691;275;96043;-55
2023/10/05 06:40:13;;;;;;;;;;;;;;;12.97;84.68;100848.61;107707;275;97163;-55
2023/10/05 06:42:47;;;;;;;;;;;;;;;13.04;84.45;100851.23;107677;275;120600;-54
2023/10/05 06:45:23;;;;;;;;;;;;;;;13.03;84.37;100850.93;107676;276;104449;-54
2023/10/05 06:47:54;;;;;;;;;;;;;;;13.01;84.45;100853.16;107807;275;114093;-59
2023/10/05 06:50:29;;;;;;;;;;;;;;;12.96;84.40;100856.78;107843;275;94932;-55
2023/10/05 06:53:04;;;;;;;;;;;;;;;12.94;84.00;100856.42;107812;275;96373;-59
2023/10/05 06:55:34;;;;;;;;;;;;;;;12.93;84.01;100858.38;107775;275;121352;-59
2023/10/05 06:58:08;;;;;;;;;;;;;;;12.96;84.05;100857.64;107695;275;105286;-57
2023/10/05 07:00:39;;;;;;;;;;;;;;;13.11;83.90;100850.81;107635;275;112926;-57
2023/10/05 07:03:16;;;;;;;;;;;;;;;13.35;84.04;100846.31;107697;275;95779;-57
2023/10/05 07:05:47;;;;;;;;;;;;;;;13.63;83.91;100844.85;107694;275;98573;-60
2023/10/05 07:08:21;;;;;;;;;;;;;;;13.97;83.92;100837.23;107723;275;122090;-60
2023/10/05 07:10:59;;;;;;;;;;;;;;;14.43;83.51;100844.40;107709;275;104632;-56
2023/10/05 07:13:37;;;;;;;;;;;;;;;14.78;82.55;100839.20;107626;275;114569;-55
2023/10/05 07:16:13;;;;;;;;;;;;;;;14.86;81.62;100836.95;107716;275;94085;-58
2023/10/05 07:18:44;;;;;;;;;;;;;;;14.83;81.29;100837.70;107657;275;97407;-58
2023/10/05 07:21:27;;;;;;;;;;;;;;;14.85;81.15;100841.13;107679;275;121620;-55
2023/10/05 07:24:07;;;;;;;;;;;;;;;14.79;80.49;100841.70;107609;275;104903;-55
2023/10/05 07:26:43;;;;;;;;;;;;;;;14.77;80.36;100838.03;107711;275;114347;-54
2023/10/05 07:29:20;;;;;;;;;;;;;;;14.78;80.10;100835.27;107646;275;94735;-55
2023/10/05 07:31:57;;;;;;;;;;;;;;;14.76;80.03;100832.13;107723;275;97199;-60
2023/10/05 07:34:28;;;;;;;;;;;;;;;14.81;80.00;100833.96;107653;275;121019;-60
2023/10/05 07:37:02;;;;;;;;;;;;;;;14.88;79.80;100829.95;107740;275;104206;-59
2023/10/05 07:39:43;;;;;;;;;;;;;;;14.92;79.28;100826.75;107682;275;113750;-61
2023/10/05 07:42:18;;;;;;;;;;;;;;;14.87;77.63;100824.52;107680;275;94184;-54
2023/10/05 07:44:56;;;;;;;;;;;;;;;14.91;78.35;100818.89;107659;275;96894;-55
2023/10/05 07:47:31;;;;;;;;;;;;;;;15.03;78.40;100817.94;107701;275;121844;-58
2023/10/05 07:50:11;;;;;;;;;;;;;;;15.15;78.40;100815.89;107721;275;105501;-61
2023/10/05 07:52:52;;;;;;;;;;;;;;;15.38;78.37;100814.17;107660;272;113111;-54
2023/10/05 07:55:23;;;;;;;;;;;;;;;15.73;78.07;100816.25;107639;275;94683;-56
2023/10/05 07:57:58;;;;;;;;;;;;;;;16.29;77.24;100810.79;107719;275;97675;-60
2023/10/05 08:00:29;;;;;;;;;;;;;;;16.86;76.22;100802.27;107691;275;122967;-55
2023/10/05 08:02:58;;;;;;;;;;;;;;;17.50;75.89;100802.51;107665;275;104281;-54
2023/10/05 08:05:29;;;;;;;;;;;;;;;18.48;74.50;100795.77;107663;275;114993;-55
2023/10/05 08:08:07;;;;;;;;;;;;;;;18.69;72.59;100788.54;107507;275;94683;-54
2023/10/05 08:10:43;;;;;;;;;;;;;;;18.81;72.40;100794.23;107719;275;98253;-56
2023/10/05 08:13:17;;;;;;;;;;;;;;;18.62;71.51;100787.73;107745;275;122256;-56
2023/10/05 08:15:56;;;;;;;;;;;;;;;18.57;70.62;100787.17;107692;275;104060;-55
2023/10/05 08:18:31;;;;;;;;;;;;;;;18.50;70.42;100787.14;107664;275;113432;-54
2023/10/05 08:21:04;;;;;;;;;;;;;;;18.07;68.89;100785.98;107691;275;93341;-58
2023/10/05 08:23:43;;;;;;;;;;;;;;;17.60;68.87;100787.22;107635;275;97777;-59
2023/10/05 08:26:19;;;;;;;;;;;;;;;17.14;68.81;100782.11;107643;275;121718;-55
2023/10/05 08:28:51;;;;;;;;;;;;;;;16.79;69.38;100784.20;107666;275;105481;-56
2023/10/05 08:31:24;;;;;;;;;;;;;;;16.57;69.63;100781.27;107613;275;113410;-59
2023/10/05 08:34:00;;;;;;;;;;;;;;;16.46;70.34;100783.48;107633;275;95456;-59
2023/10/05 08:36:33;;;;;;;;;;;;;;;16.48;70.81;100781.66;107670;275;96954;-56
2023/10/05 08:39:08;;;;;;;;;;;;;;;16.49;70.07;100780.35;107655;275;121366;-56
2023/10/05 08:41:41;;;;;;;;;;;;;;;16.43;70.67;100773.67;107700;275;105639;-57
2023/10/05 08:44:26;;;;;;;;;;;;;;;16.41;71.02;100780.60;107709;275;115109;-60
2023/10/05 08:47:05;;;;;;;;;;;;;;;16.34;70.52;100779.81;107745;275;95609;-59
2023/10/05 08:49:43;;;;;;;;;;;;;;;16.29;70.27;100782.36;107703;275;96071;-59
2023/10/05 08:52:23;;;;;;;;;;;;;;;16.47;70.55;100779.41;107664;275;120544;-54
2023/10/05 08:54:56;;;;;;;;;;;;;;;16.60;70.43;100773.54;107673;275;104876;-54
2023/10/05 08:57:33;;;;;;;;;;;;;;;16.74;70.65;100768.73;107635;275;113943;-55
2023/10/05 09:00:08;;;;;;;;;;;;;;;16.89;70.80;100767.75;107685;275;95191;-55
2023/10/05 09:02:40;;;;;;;;;;;;;;;17.01;70.61;100765.39;107698;275;96791;-58
2023/10/05 09:05:16;;;;;;;;;;;;;;;17.07;70.00;100764.19;107659;275;121549;-59
2023/10/05 09:07:55;;;;;;;;;;;;;;;17.07;69.51;100759.45;107638;275;106126;-58
2023/10/05 09:10:29;;;;;;;;;;;;;;;17.00;69.04;100757.41;107655;275;114807;-55
2023/10/05 09:13:07;;;;;;;;;;;;;;;17.11;69.27;100758.02;107681;275;95316;-54
2023/10/05 09:15:51;;;;;;;;;;;;;;;17.30;69.58;100752.98;107684;275;97502;-59
2023/10/05 09:18:25;;;;;;;;;;;;;;;17.51;69.14;100751.62;107728;275;122500;-59
2023/10/05 09:21:05;;;;;;;;;;;;;;;17.57;68.85;100754.23;107716;275;105805;-54
2023/10/05 09:23:42;;;;;;;;;;;;;;;17.57;68.48;100758.93;107683;275;113320;-55
2023/10/05 09:26:33;;;;;;;;;;;;;;;17.50;67.28;100757.05;107673;275;95058;-61
2023/10/05 09:29:21;;;;;;;;;;;;;;;17.24;67.68;100756.77;107679;275;96233;-62
2023/10/05 09:31:54;;;;;;;;;;;;;;;17.13;68.11;100756.89;107678;275;120516;-59
2023/10/05 09:34:49;;;;;;;;;;;;;;;17.06;67.99;100752.02;107669;275;106069;-59
2023/10/05 09:37:23;;;;;;;;;;;;;;;16.90;67.81;100745.98;107666;275;114939;-58
2023/10/05 09:39:59;;;;;;;;;;;;;;;16.88;67.78;100751.24;107631;275;93283;-59
2023/10/05 09:42:35;;;;;;;;;;;;;;;16.89;67.85;100748.18;107683;275;97722;-56
2023/10/05 09:45:11;;;;;;;;;;;;;;;16.97;68.29;100747.07;107483;275;122507;-57
2023/10/05 09:47:47;;;;;;;;;;;;;;;17.03;68.28;100744.25;107739;275;105360;-56
2023/10/05 09:50:25;;;;;;;;;;;;;;;17.03;68.14;100744.95;107699;275;114984;-56
2023/10/05 09:53:02;;;;;;;;;;;;;;;17.00;67.67;100743.47;107753;275;94512;-54
2023/10/05 09:55:40;;;;;;;;;;;;;;;17.06;68.07;100738.75;107732;275;98479;-59
2023/10/05 09:58:17;;;;;;;;;;;;;;;17.14;68.01;100739.06;107534;275;122523;-58
2023/10/05 10:00:55;;;;;;;;;;;;;;;17.12;67.13;100734.92;107719;275;105225;-56
2023/10/05 10:03:28;;;;;;;;;;;;;;;17.09;67.36;100740.02;107681;275;114223;-54
2023/10/05 10:06:08;;;;;;;;;;;;;;;17.12;67.67;100739.38;107679;275;94440;-57
2023/10/05 10:08:51;;;;;;;;;;;;;;;17.20;67.10;100741.33;107470;275;96422;-56
2023/10/05 10:11:27;;;;;;;;;;;;;;;17.22;66.77;100736.48;107647;275;121623;-61
2023/10/05 10:14:18;;;;;;;;;;;;;;;17.31;66.72;100739.99;107680;275;105421;-61
2023/10/05 10:17:00;;;;;;;;;;;;;;;17.35;66.80;100734.08;107618;275;114851;-54
2023/10/05 10:19:45;;;;;;;;;;;;;;;17.44;65.81;100736.05;107516;275;93842;-54
2023/10/05 10:22:29;;;;;;;;;;;;;;;17.49;65.89;100735.83;107701;275;97083;-54
2023/10/05 10:25:10;;;;;;;;;;;;;;;17.56;65.84;100735.41;107678;275;121493;-54
2023/10/05 10:27:44;;;;;;;;;;;;;;;17.54;65.67;100722.77;107640;275;105544;-56
2023/10/05 10:30:27;;;;;;;;;;;;;;;17.52;65.73;100727.52;107644;275;113758;-59
2023/10/05 10:33:27;;;;;;;;;;;;;;;17.54;65.83;100723.98;107678;275;94409;-55
2023/10/05 10:36:04;;;;;;;;;;;;;;;17.52;65.44;100717.15;107708;275;97009;-55
2023/10/05 10:38:38;;;;;;;;;;;;;;;17.44;65.37;100716.81;107689;275;122117;-55
2023/10/05 10:41:15;;;;;;;;;;;;;;;17.34;65.39;100719.88;107660;275;105572;-54
2023/10/05 10:43:52;;;;;;;;;;;;;;;17.30;65.69;100708.89;107644;275;114747;-52
2023/10/05 10:46:31;;;;;;;;;;;;;;;17.25;65.23;100709.98;107631;275;94718;-54
2023/10/05 10:49:07;;;;;;;;;;;;;;;17.16;65.50;100707.05;107646;275;96603;-55
2023/10/05 10:51:43;;;;;;;;;;;;;;;17.06;65.57;100701.70;107652;275;121542;-59
2023/10/05 10:54:28;;;;;;;;;;;;;;;16.97;65.11;100700.63;107690;275;105354;-58
2023/10/05 10:57:01;;;;;;;;;;;;;;;16.91;65.36;100690.93;107690;275;114624;-53
2023/10/05 10:59:42;;;;;;;;;;;;;;;16.92;65.33;100686.27;107675;275;95218;-54
2023/10/05 11:02:23;;;;;;;;;;;;;;;16.94;64.93;100678.40;107712;275;97565;-58
2023/10/05 11:05:05;;;;;;;;;;;;;;;17.00;65.36;100678.29;107659;275;122851;-56
2023/10/05 11:07:41;;;;;;;;;;;;;;;17.04;64.60;100674.02;107731;275;105361;-58
2023/10/05 11:10:23;;;;;;;;;;;;;;;17.04;65.23;100673.42;107699;275;113372;-59
2023/10/05 11:13:14;;;;;;;;;;;;;;;17.06;65.38;100669.08;107712;277;94176;-60
2023/10/05 11:16:00;;;;;;;;;;;;;;;17.12;65.43;100670.11;107772;275;97002;-54
2023/10/05 11:18:35;;;;;;;;;;;;;;;17.19;65.51;100670.38;107701;268;121053;-54
2023/10/05 11:21:14;;;;;;;;;;;;;;;17.19;65.45;100659.63;107700;275;104128;-54
2023/10/05 11:23:47;;;;;;;;;;;;;;;17.13;65.48;100656.70;107691;275;111810;-54
2023/10/05 11:26:18;;;;;;;;;;;;;;;17.14;65.72;100650.36;107694;275;93729;-56
2023/10/05 11:28:51;;;;;;;;;;;;;;;17.19;65.46;100659.34;107682;275;96855;-57
2023/10/05 11:31:34;;;;;;;;;;;;;;;17.17;64.87;100661.63;107695;275;120085;-61
2023/10/05 11:34:11;;;;;;;;;;;;;;;17.10;64.85;100659.89;107653;275;105679;-61
2023/10/05 11:36:47;;;;;;;;;;;;;;;17.10;65.03;100650.39;107672;275;114458;-61
2023/10/05 11:39:27;;;;;;;;;;;;;;;17.10;65.02;100647.00;107636;275;94838;-60
2023/10/05 11:42:03;;;;;;;;;;;;;;;17.07;64.51;100642.07;107671;275;96271;-54
2023/10/05 11:44:37;;;;;;;;;;;;;;;17.06;64.52;100644.10;107644;275;120973;-54
2023/10/05 11:47:23;;;;;;;;;;;;;;;17.05;63.48;100635.92;107786;275;104676;-60
2023/10/05 11:49:57;;;;;;;;;;;;;;;17.06;63.63;100631.75;107693;275;112847;-60
2023/10/05 11:52:37;;;;;;;;;;;;;;;17.12;62.93;100620.97;107715;275;94723;-56
2023/10/05 11:55:14;;;;;;;;;;;;;;;17.18;63.53;100619.49;107642;275;97453;-55
2023/10/05 11:57:51;;;;;;;;;;;;;;;17.25;63.64;100615.84;107126;275;641147;-59
2023/10/05 12:00:31;;;;;;;;;;;;;;;17.32;63.90;100621.17;107607;275;105394;-58
2023/10/05 12:03:12;;;;;;;;;;;;;;;17.31;63.70;100619.25;107618;275;115039;-56
2023/10/05 12:05:46;;;;;;;;;;;;;;;17.32;63.64;100624.08;107622;275;94667;-60
2023/10/05 12:08:23;;;;;;;;;;;;;;;17.30;63.58;100625.40;107667;275;97220;-61
2023/10/05 12:11:00;;;;;;;;;;;;;;;17.28;63.63;100623.36;107631;275;121375;-60
2023/10/05 12:13:36;;;;;;;;;;;;;;;17.25;62.95;100616.77;107673;275;105717;-61
2023/10/05 12:16:11;;;;;;;;;;;;;;;17.23;63.55;100614.30;107673;275;113999;-55
2023/10/05 12:18:48;;;;;;;;;;;;;;;17.23;63.58;100615.65;107698;275;94493;-56
2023/10/05 12:21:20;;;;;;;;;;;;;;;17.16;63.58;100618.20;107722;275;97875;-59
2023/10/05 12:24:03;;;;;;;;;;;;;;;17.02;63.56;100615.73;107530;275;121416;-58
2023/10/05 12:26:42;;;;;;;;;;;;;;;16.93;63.42;100613.33;107696;275;105150;-54
2023/10/05 12:29:17;;;;;;;;;;;;;;;16.85;63.59;100612.27;107644;275;114725;-54
2023/10/05 12:31:52;;;;;;;;;;;;;;;16.82;63.55;100610.33;107632;275;93297;-60
2023/10/05 12:34:27;;;;;;;;;;;;;;;16.86;63.84;100601.64;107716;275;97328;-61
2023/10/05 12:37:00;;;;;;;;;;;;;;;16.85;64.10;100604.05;107652;275;122946;-61
2023/10/05 12:39:33;;;;;;;;;;;;;;;16.89;64.16;100607.97;107664;275;105706;-61
2023/10/05 12:42:08;;;;;;;;;;;;;;;16.92;64.39;100603.54;107623;275;111316;-56
2023/10/05 12:44:42;;;;;;;;;;;;;;;16.90;64.42;100607.67;107631;275;95886;-56
2023/10/05 12:47:28;;;;;;;;;;;;;;;16.89;64.22;100606.28;107664;275;97154;-55
2023/10/05 12:50:04;;;;;;;;;;;;;;;16.87;64.41;100603.15;107500;275;123814;-54
2023/10/05 12:52:40;;;;;;;;;;;;;;;16.86;64.67;100599.45;107719;275;105522;-60
2023/10/05 12:55:16;;;;;;;;;;;;;;;16.85;64.62;100594.52;107490;275;114340;-60
2023/10/05 12:57:54;;;;;;;;;;;;;;;16.78;64.70;100600.46;107664;275;93017;-61
2023/10/05 13:00:31;;;;;;;;;;;;;;;16.76;64.70;100599.14;107660;275;97838;-59
2023/10/05 13:03:05;;;;;;;;;;;;;;;16.70;64.57;100598.30;107629;275;120900;-59
2023/10/05 13:05:43;;;;;;;;;;;;;;;16.66;64.47;100594.63;107671;275;104558;-56
2023/10/05 13:08:21;;;;;;;;;;;;;;;16.61;64.59;100594.78;107600;275;114627;-55
2023/10/05 13:10:52;;;;;;;;;;;;;;;16.58;64.73;100602.32;107672;275;95052;-53
2023/10/05 13:13:25;;;;;;;;;;;;;;;16.53;64.93;100603.07;107693;275;96113;-58
2023/10/05 13:16:05;;;;;;;;;;;;;;;16.50;65.04;100604.30;107697;275;121050;-58
2023/10/05 13:18:39;;;;;;;;;;;;;;;16.46;65.09;100609.70;107562;275;107050;-54
2023/10/05 13:21:14;;;;;;;;;;;;;;;16.37;65.23;100607.89;107728;275;112517;-54
2023/10/05 13:23:54;;;;;;;;;;;;;;;16.31;65.53;100606.58;107678;275;94205;-57